GEC1918 EGAA-EGJJ
Flight info
| Callsign | GEC1918 |
|---|---|
| Flight time | 1h 7m |
| Altitude | 37000 |
| Route | LISBO DCT RINGA Q39 ETIGA DCT INKOB Q39 NOMSU UQ4 WAL N862 KARNO/N0484F360 DCT ALHUP DCT ABWIV DCT PACSE DCT DAWLY/N0440F230 N864 ABBEW N90 ENHEL N862 SKERY |
| Aircraft | MD11/H-SDE1E2E3FGHIJ2J3J4J5M1RWXY/LB1D1 |
Departure
| Time | 2026-01-18 04:16 |
|---|---|
| Airport | Belfast International Airport (EGAA) |
Arrival
| Time | 2026-01-18 05:23 |
|---|---|
| Airport | Jersey Airport (EGJJ) |
| Time | Latitude | Longitude | Altitude | Speed | Heading |
|---|---|---|---|---|---|
| 2026-01-18 03:47 | 54.65980 | -6.22269 | 282 ft | 0 kts | 335° |
| 2026-01-18 04:05 | 54.65968 | -6.22259 | 282 ft | 3 kts | 342° |
| 2026-01-18 04:06 | 54.65935 | -6.22260 | 288 ft | 3 kts | 36° |
| 2026-01-18 04:06 | 54.65921 | -6.22281 | 281 ft | 3 kts | 53° |
| 2026-01-18 04:06 | 54.65904 | -6.22329 | 283 ft | 1 kts | 65° |
| 2026-01-18 04:07 | 54.65903 | -6.22333 | 283 ft | 0 kts | 65° |
| 2026-01-18 04:09 | 54.65927 | -6.22247 | 283 ft | 9 kts | 64° |
| 2026-01-18 04:10 | 54.65910 | -6.22058 | 279 ft | 10 kts | 145° |
| 2026-01-18 04:10 | 54.65783 | -6.22156 | 279 ft | 15 kts | 251° |
| 2026-01-18 04:11 | 54.65746 | -6.22614 | 279 ft | 23 kts | 264° |
| 2026-01-18 04:11 | 54.65712 | -6.22884 | 279 ft | 24 kts | 245° |
| 2026-01-18 04:11 | 54.65511 | -6.23323 | 279 ft | 20 kts | 210° |
| 2026-01-18 04:12 | 54.65441 | -6.23380 | 279 ft | 0 kts | 200° |
| 2026-01-18 04:14 | 54.65388 | -6.23394 | 279 ft | 11 kts | 179° |
| 2026-01-18 04:14 | 54.65310 | -6.23219 | 282 ft | 12 kts | 68° |
| 2026-01-18 04:14 | 54.65406 | -6.22853 | 279 ft | 71 kts | 65° |
| 2026-01-18 04:15 | 54.66749 | -6.18042 | 1516 ft | 172 kts | 72° |
| 2026-01-18 04:15 | 54.67050 | -6.16054 | 2371 ft | 170 kts | 96° |
| 2026-01-18 04:16 | 54.64548 | -6.12147 | 3931 ft | 208 kts | 167° |
| 2026-01-18 04:17 | 54.61853 | -6.10918 | 5401 ft | 215 kts | 172° |
| 2026-01-18 04:17 | 54.58629 | -6.10273 | 5952 ft | 242 kts | 173° |
| 2026-01-18 04:17 | 54.56947 | -6.09924 | 6482 ft | 244 kts | 173° |
| 2026-01-18 04:18 | 54.53611 | -6.08716 | 7389 ft | 249 kts | 155° |
| 2026-01-18 04:19 | 54.50583 | -6.01400 | 8653 ft | 266 kts | 117° |
| 2026-01-18 04:19 | 54.49179 | -5.95453 | 10222 ft | 275 kts | 116° |
| 2026-01-18 04:19 | 54.48407 | -5.92231 | 10372 ft | 307 kts | 116° |
| 2026-01-18 04:20 | 54.45722 | -5.81064 | 12197 ft | 349 kts | 116° |
| 2026-01-18 04:21 | 54.43849 | -5.73296 | 13884 ft | 360 kts | 116° |
| 2026-01-18 04:21 | 54.41900 | -5.65276 | 15361 ft | 368 kts | 116° |
| 2026-01-18 04:22 | 54.39800 | -5.57196 | 16766 ft | 372 kts | 123° |
| 2026-01-18 04:22 | 54.36962 | -5.49707 | 18163 ft | 377 kts | 129° |
| 2026-01-18 04:23 | 54.33912 | -5.42298 | 19345 ft | 384 kts | 129° |
| 2026-01-18 04:23 | 54.32385 | -5.38582 | 19861 ft | 389 kts | 128° |
| 2026-01-18 04:24 | 54.27628 | -5.27142 | 21587 ft | 395 kts | 133° |
| 2026-01-18 04:24 | 54.24152 | -5.19792 | 22700 ft | 401 kts | 135° |
| 2026-01-18 04:25 | 54.20562 | -5.12377 | 23820 ft | 409 kts | 135° |
| 2026-01-18 04:25 | 54.16926 | -5.04847 | 24628 ft | 419 kts | 134° |
| 2026-01-18 04:27 | 54.05406 | -4.81007 | 27192 ft | 450 kts | 132° |
| 2026-01-18 04:29 | 53.89713 | -4.46094 | 30557 ft | 482 kts | 129° |
| 2026-01-18 04:31 | 53.74085 | -4.08519 | 33507 ft | 488 kts | 126° |
| 2026-01-18 04:33 | 53.58525 | -3.71064 | 35845 ft | 487 kts | 125° |
| 2026-01-18 04:35 | 53.43962 | -3.32970 | 37018 ft | 489 kts | 112° |
| 2026-01-18 04:37 | 53.30338 | -2.94612 | 37037 ft | 483 kts | 147° |
| 2026-01-18 04:39 | 53.04868 | -2.88350 | 37032 ft | 473 kts | 186° |
| 2026-01-18 04:41 | 52.78757 | -2.92252 | 37036 ft | 471 kts | 190° |
| 2026-01-18 04:42 | 52.55931 | -2.95399 | 37034 ft | 472 kts | 184° |
| 2026-01-18 04:45 | 52.26511 | -2.97792 | 37032 ft | 476 kts | 184° |
| 2026-01-18 04:46 | 52.03329 | -2.99681 | 37023 ft | 477 kts | 184° |
| 2026-01-18 04:49 | 51.73792 | -3.03818 | 37089 ft | 472 kts | 189° |
| 2026-01-18 04:51 | 51.47831 | -3.09277 | 37007 ft | 470 kts | 188° |
| 2026-01-18 04:53 | 51.22388 | -3.17951 | 36999 ft | 470 kts | 197° |
| 2026-01-18 04:55 | 50.97270 | -3.29128 | 36996 ft | 469 kts | 197° |
| 2026-01-18 04:57 | 50.71830 | -3.40261 | 36993 ft | 476 kts | 197° |
| 2026-01-18 04:58 | 50.49207 | -3.45196 | 36985 ft | 479 kts | 162° |
| 2026-01-18 05:01 | 50.22023 | -3.25160 | 36960 ft | 481 kts | 162° |
| 2026-01-18 05:03 | 49.97122 | -3.14944 | 31346 ft | 444 kts | 153° |
| 2026-01-18 05:05 | 49.77444 | -2.94275 | 26509 ft | 411 kts | 150° |
| 2026-01-18 05:06 | 49.68078 | -2.84743 | 24264 ft | 398 kts | 150° |
| 2026-01-18 05:06 | 49.63480 | -2.80078 | 23110 ft | 392 kts | 150° |
| 2026-01-18 05:07 | 49.58932 | -2.75475 | 21970 ft | 388 kts | 150° |
| 2026-01-18 05:07 | 49.54473 | -2.70969 | 20893 ft | 384 kts | 149° |
| 2026-01-18 05:07 | 49.52242 | -2.68719 | 20362 ft | 382 kts | 149° |
| 2026-01-18 05:08 | 49.45599 | -2.62044 | 18774 ft | 378 kts | 150° |
| 2026-01-18 05:09 | 49.40972 | -2.58324 | 17616 ft | 372 kts | 156° |
| 2026-01-18 05:09 | 49.36406 | -2.55121 | 14971 ft | 357 kts | 156° |
| 2026-01-18 05:10 | 49.31960 | -2.52036 | 12135 ft | 344 kts | 159° |
| 2026-01-18 05:10 | 49.27333 | -2.51808 | 9511 ft | 336 kts | 195° |
| 2026-01-18 05:10 | 49.25253 | -2.52996 | 9344 ft | 302 kts | 199° |
| 2026-01-18 05:11 | 49.20885 | -2.58223 | 7786 ft | 277 kts | 247° |
| 2026-01-18 05:11 | 49.20335 | -2.61049 | 7046 ft | 277 kts | 253° |
| 2026-01-18 05:12 | 49.18999 | -2.68890 | 5405 ft | 214 kts | 253° |
| 2026-01-18 05:13 | 49.18277 | -2.73127 | 4363 ft | 203 kts | 253° |
| 2026-01-18 05:13 | 49.18166 | -2.75250 | 3710 ft | 202 kts | 284° |
| 2026-01-18 05:14 | 49.21496 | -2.77658 | 2081 ft | 203 kts | 32° |
| 2026-01-18 05:14 | 49.22595 | -2.74015 | 2015 ft | 201 kts | 95° |
| 2026-01-18 05:15 | 49.21705 | -2.69939 | 1985 ft | 203 kts | 110° |
| 2026-01-18 05:15 | 49.21163 | -2.67944 | 1980 ft | 203 kts | 110° |
| 2026-01-18 05:15 | 49.20160 | -2.64288 | 1975 ft | 177 kts | 110° |
| 2026-01-18 05:16 | 49.19220 | -2.58921 | 1978 ft | 174 kts | 97° |
| 2026-01-18 05:17 | 49.19046 | -2.55226 | 1991 ft | 174 kts | 90° |
| 2026-01-18 05:17 | 49.19030 | -2.51540 | 1989 ft | 175 kts | 90° |
| 2026-01-18 05:18 | 49.19013 | -2.47812 | 1993 ft | 175 kts | 90° |
| 2026-01-18 05:18 | 49.18995 | -2.44098 | 1984 ft | 175 kts | 90° |
| 2026-01-18 05:18 | 49.18989 | -2.42241 | 1992 ft | 175 kts | 89° |
| 2026-01-18 05:19 | 49.19377 | -2.36699 | 1991 ft | 175 kts | 83° |
| 2026-01-18 05:19 | 49.19527 | -2.34879 | 1979 ft | 175 kts | 83° |
| 2026-01-18 05:20 | 49.19982 | -2.29367 | 1491 ft | 162 kts | 83° |
| 2026-01-18 05:21 | 49.20248 | -2.26152 | 1049 ft | 150 kts | 82° |
| 2026-01-18 05:21 | 49.20509 | -2.22997 | 619 ft | 149 kts | 81° |
| 2026-01-18 05:22 | 49.20778 | -2.19949 | 297 ft | 113 kts | 84° |
| 2026-01-18 05:22 | 49.20757 | -2.18902 | 295 ft | 22 kts | 118° |
| 2026-01-18 05:22 | 49.20717 | -2.18777 | 293 ft | 8 kts | 92° |